Time;durP1;ratioP1;P1;durP2;ratioP2;P2;SDS_P1;SDS_P2;PMS_P1;PMS_P2;Temp;Humidity;BMP_temperature;BMP_pressure;BME280_temperature;BME280_humidity;BME280_pressure;Samples;Min_cycle;Max_cycle;Signal;HPM_P1;HPM_P2
2023/02/23 00:00:37;;;;;;;5.70;0.93;;;;;;;;;;5012537;28;20057;-66
2023/02/23 00:03:10;;;;;;;3.95;1.17;;;;;;;;;;5011873;28;20060;-66
2023/02/23 00:05:40;;;;;;;7.05;1.00;;;;;;;;;;5028677;28;20057;-65
2023/02/23 00:08:10;;;;;;;5.68;0.88;;;;;;;;;;5028836;28;20061;-67
2023/02/23 00:10:40;;;;;;;4.15;1.05;;;;;;;;;;5011871;28;20049;-65
2023/02/23 00:13:10;;;;;;;3.10;1.08;;;;;;;;;;5028664;28;20049;-65
2023/02/23 00:15:40;;;;;;;4.97;0.75;;;;;;;;;;5011642;28;20057;-66
2023/02/23 00:18:13;;;;;;;1.83;0.63;;;;;;;;;;5027841;28;20540;-65
2023/02/23 00:20:47;;;;;;;3.50;1.05;;;;;;;;;;5028243;28;20045;-65
2023/02/23 00:23:20;;;;;;;5.20;1.05;;;;;;;;;;5028504;28;21334;-65
2023/02/23 00:25:50;;;;;;;4.40;0.90;;;;;;;;;;5028172;28;20061;-66
2023/02/23 00:28:20;;;;;;;3.58;1.20;;;;;;;;;;4995908;28;20068;-65
2023/02/23 00:30:50;;;;;;;5.22;1.02;;;;;;;;;;5039588;28;20061;-66
2023/02/23 00:33:20;;;;;;;1.88;0.63;;;;;;;;;;5028217;28;20053;-65
2023/02/23 00:35:50;;;;;;;5.50;1.00;;;;;;;;;;5028312;28;20060;-65
2023/02/23 00:38:20;;;;;;;4.28;1.13;;;;;;;;;;5028390;28;20409;-65
2023/02/23 00:40:50;;;;;;;4.03;0.63;;;;;;;;;;5027902;28;20049;-64
2023/02/23 00:43:23;;;;;;;1.27;0.80;;;;;;;;;;5028190;28;20493;-65
2023/02/23 00:45:55;;;;;;;2.92;0.80;;;;;;;;;;5028414;28;20080;-65
2023/02/23 00:48:27;;;;;;;2.53;0.82;;;;;;;;;;5012021;28;20532;-66
2023/02/23 00:51:04;;;;;;;2.33;0.80;;;;;;;;;;5028013;28;20521;-66
2023/02/23 00:53:34;;;;;;;2.00;0.80;;;;;;;;;;5011244;28;20053;-65
2023/02/23 00:56:06;;;;;;;1.40;0.82;;;;;;;;;;5012362;28;20164;-66
2023/02/23 00:58:37;;;;;;;2.03;1.10;;;;;;;;;;5023603;28;20053;-65
2023/02/23 01:01:09;;;;;;;1.58;0.98;;;;;;;;;;5048195;28;20045;-65
2023/02/23 01:03:41;;;;;;;1.35;1.00;;;;;;;;;;5014690;28;20787;-65
2023/02/23 01:06:13;;;;;;;2.60;1.27;;;;;;;;;;5027928;28;20053;-66
2023/02/23 01:08:44;;;;;;;;;;;;;;;;;;4999201;28;20049;-65
2023/02/23 01:11:17;;;;;;;1.98;0.88;;;;;;;;;;5019863;28;19928;-65
2023/02/23 01:13:51;;;;;;;3.03;1.13;;;;;;;;;;5012816;28;20054;-66
2023/02/23 01:16:26;;;;;;;1.45;0.63;;;;;;;;;;4979271;28;20058;-66
2023/02/23 01:19:00;;;;;;;2.25;0.90;;;;;;;;;;4973091;28;20045;-66
2023/02/23 01:21:35;;;;;;;5.03;1.27;;;;;;;;;;4972032;28;20043;-66
2023/02/23 01:24:06;;;;;;;2.78;0.82;;;;;;;;;;4976930;28;20062;-65
2023/02/23 01:26:39;;;;;;;3.30;0.90;;;;;;;;;;4972080;28;20050;-66
2023/02/23 01:29:12;;;;;;;2.88;0.88;;;;;;;;;;4956885;28;20052;-65
2023/02/23 01:31:49;;;;;;;1.83;0.80;;;;;;;;;;4957058;28;20107;-65
2023/02/23 01:34:20;;;;;;;4.43;1.00;;;;;;;;;;4949705;29;20052;-66
2023/02/23 01:36:51;;;;;;;2.10;0.85;;;;;;;;;;4938683;28;20164;-66
2023/02/23 01:39:21;;;;;;;1.52;1.05;;;;;;;;;;4905432;28;20524;-66
2023/02/23 01:41:52;;;;;;;2.33;1.10;;;;;;;;;;4921271;29;20563;-64
2023/02/23 01:44:22;;;;;;;1.40;0.82;;;;;;;;;;4905888;28;20071;-65
2023/02/23 01:46:52;;;;;;;1.98;0.70;;;;;;;;;;4952798;28;20055;-65
2023/02/23 01:49:27;;;;;;;4.40;1.35;;;;;;;;;;4952780;28;20047;-65
2023/02/23 01:52:09;;;;;;;3.00;1.20;;;;;;;;;;4904799;29;20392;-65
2023/02/23 01:54:49;;;;;;;2.90;0.88;;;;;;;;;;4953146;28;20058;-65
2023/02/23 01:57:25;;;;;;;3.67;1.10;;;;;;;;;;4973610;28;20062;-65
2023/02/23 01:59:58;;;;;;;1.58;1.13;;;;;;;;;;4967231;28;20527;-65
2023/02/23 02:02:40;;;;;;;3.13;1.40;;;;;;;;;;4953035;28;20055;-66
2023/02/23 02:05:12;;;;;;;3.50;0.93;;;;;;;;;;4951956;29;20047;-65
2023/02/23 02:07:46;;;;;;;1.35;0.88;;;;;;;;;;4920519;29;20090;-65
2023/02/23 02:10:38;;;;;;;1.92;0.90;;;;;;;;;;4971376;28;20458;-65
2023/02/23 02:13:09;;;;;;;3.28;1.10;;;;;;;;;;4952042;28;20422;-65
2023/02/23 02:16:05;;;;;;;2.92;0.82;;;;;;;;;;4952401;29;20507;-65
2023/02/23 02:19:08;;;;;;;3.13;1.05;;;;;;;;;;4950908;28;20577;-65
2023/02/23 02:21:56;;;;;;;2.38;1.02;;;;;;;;;;4951954;29;20062;-65
2023/02/23 02:24:59;;;;;;;2.30;1.25;;;;;;;;;;4951957;29;20524;-65
2023/02/23 02:28:07;;;;;;;2.03;0.90;;;;;;;;;;4906133;29;20049;-65
2023/02/23 02:30:46;;;;;;;5.10;1.48;;;;;;;;;;4894662;29;20060;-65
2023/02/23 02:33:34;;;;;;;3.63;1.50;;;;;;;;;;4913411;29;20428;-65
2023/02/23 02:36:22;;;;;;;2.35;0.93;;;;;;;;;;4913961;29;20052;-65
2023/02/23 02:39:22;;;;;;;2.92;0.90;;;;;;;;;;4913633;29;20052;-65
2023/02/23 02:42:10;;;;;;;3.78;1.20;;;;;;;;;;4913835;29;20533;-65
2023/02/23 02:44:53;;;;;;;3.35;1.40;;;;;;;;;;4897921;29;20059;-65
2023/02/23 02:47:49;;;;;;;3.15;0.90;;;;;;;;;;4886878;29;20440;-65
2023/02/23 02:50:52;;;;;;;6.45;1.00;;;;;;;;;;4932544;29;20110;-65
2023/02/23 02:53:44;;;;;;;2.97;0.90;;;;;;;;;;4932632;29;20067;-65
2023/02/23 02:56:20;;;;;;;2.53;1.20;;;;;;;;;;4960835;28;20411;-65
2023/02/23 02:58:52;;;;;;;5.13;1.00;;;;;;;;;;4957207;28;20054;-66
2023/02/23 04:18:31;;;;;;;1.42;0.70;;;;;;;;;;4934119;29;20535;-65
2023/02/23 04:21:02;;;;;;;3.17;1.08;;;;;;;;;;4950615;29;20407;-65
2023/02/23 04:23:32;;;;;;;2.97;0.52;;;;;;;;;;4950893;28;20055;-65
2023/02/23 04:26:04;;;;;;;4.55;0.60;;;;;;;;;;4969857;28;20066;-65
2023/02/23 04:28:33;;;;;;;3.28;0.90;;;;;;;;;;4974955;28;20842;-65
2023/02/23 04:31:03;;;;;;;1.13;0.50;;;;;;;;;;5042350;28;20064;-65
2023/02/23 04:33:33;;;;;;;3.95;0.80;;;;;;;;;;5032033;28;20053;-65
2023/02/23 04:36:03;;;;;;;2.95;0.73;;;;;;;;;;5049367;28;20045;-65
2023/02/23 04:38:33;;;;;;;1.35;0.77;;;;;;;;;;5050518;28;20052;-64
2023/02/23 04:41:03;;;;;;;3.13;0.70;;;;;;;;;;5050924;28;20041;-64
2023/02/23 04:43:33;;;;;;;3.85;0.90;;;;;;;;;;5018240;28;20405;-65
2023/02/23 04:46:02;;;;;;;2.80;0.70;;;;;;;;;;5019719;28;20057;-65
2023/02/23 04:48:32;;;;;;;4.82;0.80;;;;;;;;;;5035709;28;20049;-65
2023/02/23 04:51:02;;;;;;;1.08;0.50;;;;;;;;;;5035762;28;20056;-65
2023/02/23 04:53:32;;;;;;;3.13;0.55;;;;;;;;;;4984463;28;20049;-65
2023/02/23 04:56:02;;;;;;;4.78;0.65;;;;;;;;;;4999163;28;20060;-64
2023/02/23 04:58:32;;;;;;;5.82;0.85;;;;;;;;;;4982720;28;20045;-65
2023/02/23 05:01:08;;;;;;;3.10;1.02;;;;;;;;;;4982679;28;20056;-65
2023/02/23 05:03:39;;;;;;;4.18;0.65;;;;;;;;;;4997761;28;20058;-65
2023/02/23 05:06:10;;;;;;;1.77;0.73;;;;;;;;;;5043339;28;20060;-65
2023/02/23 05:08:40;;;;;;;4.18;1.02;;;;;;;;;;5049687;28;20049;-65
2023/02/23 05:11:11;;;;;;;1.67;0.93;;;;;;;;;;5049515;28;20060;-64
2023/02/23 05:13:41;;;;;;;2.35;1.00;;;;;;;;;;4999393;28;20422;-65
2023/02/23 05:16:10;;;;;;;1.50;0.57;;;;;;;;;;5001707;28;20437;-65
2023/02/23 05:18:41;;;;;;;1.42;0.75;;;;;;;;;;5052040;28;20142;-65
2023/02/23 05:21:11;;;;;;;3.25;0.57;;;;;;;;;;4954375;28;20598;-65
2023/02/23 05:23:41;;;;;;;2.50;0.70;;;;;;;;;;5019214;28;20056;-65
2023/02/23 05:26:13;;;;;;;0.73;0.40;;;;;;;;;;5051449;28;20540;-65
2023/02/23 05:28:44;;;;;;;6.50;1.00;;;;;;;;;;4992258;28;20099;-65
2023/02/23 05:31:14;;;;;;;2.95;0.70;;;;;;;;;;4947285;28;20092;-65
2023/02/23 05:33:44;;;;;;;2.47;0.55;;;;;;;;;;4972665;28;20538;-65
2023/02/23 05:36:16;;;;;;;9.48;1.63;;;;;;;;;;4972474;28;20065;-67
2023/02/23 05:38:48;;;;;;;2.30;0.60;;;;;;;;;;4956849;28;20047;-66
2023/02/23 05:41:20;;;;;;;3.65;0.63;;;;;;;;;;4924940;28;20055;-67
2023/02/23 05:43:51;;;;;;;3.35;1.00;;;;;;;;;;4972905;28;20082;-66
2023/02/23 05:46:24;;;;;;;2.63;0.68;;;;;;;;;;4970811;28;20046;-66
2023/02/23 05:48:59;;;;;;;2.72;0.77;;;;;;;;;;4972244;28;20067;-66
2023/02/23 05:51:32;;;;;;;1.95;0.80;;;;;;;;;;4972781;28;20565;-66
2023/02/23 05:54:02;;;;;;;1.48;0.70;;;;;;;;;;4972079;28;20195;-66
2023/02/23 05:56:32;;;;;;;5.57;0.80;;;;;;;;;;4972231;28;20066;-66
2023/02/23 05:59:03;;;;;;;6.20;0.90;;;;;;;;;;4924446;28;20089;-66
2023/02/23 06:01:33;;;;;;;5.45;0.70;;;;;;;;;;4972222;28;20078;-66
2023/02/23 06:04:03;;;;;;;2.65;0.75;;;;;;;;;;4955787;28;20055;-66
2023/02/23 06:06:34;;;;;;;3.55;0.75;;;;;;;;;;4976506;28;20061;-66
2023/02/23 06:09:04;;;;;;;9.77;1.40;;;;;;;;;;5044035;28;20390;-67
2023/02/23 06:11:34;;;;;;;4.60;1.20;;;;;;;;;;5062089;28;20071;-66
2023/02/23 06:14:04;;;;;;;3.30;1.42;;;;;;;;;;5072811;28;20408;-66
2023/02/23 06:16:34;;;;;;;3.22;1.10;;;;;;;;;;5073176;28;20044;-66
2023/02/23 06:19:04;;;;;;;2.75;1.00;;;;;;;;;;5072895;28;20041;-66
2023/02/23 06:21:34;;;;;;;4.90;1.10;;;;;;;;;;5072713;28;20049;-66
2023/02/23 06:24:05;;;;;;;3.55;1.00;;;;;;;;;;5053895;28;20048;-66
2023/02/23 06:26:35;;;;;;;3.25;0.80;;;;;;;;;;5050209;28;20060;-66
2023/02/23 06:29:05;;;;;;;4.22;1.23;;;;;;;;;;5010322;28;20046;-66
2023/02/23 06:31:35;;;;;;;4.97;1.40;;;;;;;;;;5010398;28;20187;-66
2023/02/23 06:34:05;;;;;;;3.88;1.13;;;;;;;;;;5010804;28;20062;-66
2023/02/23 06:36:36;;;;;;;5.00;1.02;;;;;;;;;;4952042;29;20419;-66
2023/02/23 06:39:05;;;;;;;4.55;1.20;;;;;;;;;;4920030;29;20086;-66
2023/02/23 06:41:35;;;;;;;4.22;0.90;;;;;;;;;;4952040;29;20059;-66
2023/02/23 06:44:05;;;;;;;6.63;1.23;;;;;;;;;;4951912;29;20059;-66
2023/02/23 06:46:36;;;;;;;3.38;0.93;;;;;;;;;;4951647;29;20536;-66
2023/02/23 06:49:06;;;;;;;4.85;0.98;;;;;;;;;;4932494;29;20067;-66
2023/02/23 06:51:36;;;;;;;4.03;1.00;;;;;;;;;;4932516;29;20078;-66
2023/02/23 06:54:06;;;;;;;2.35;1.13;;;;;;;;;;4932389;29;20051;-66
2023/02/23 06:56:35;;;;;;;2.35;1.17;;;;;;;;;;4901032;29;20056;-66
2023/02/23 06:59:06;;;;;;;4.15;1.02;;;;;;;;;;4932403;29;20047;-66
2023/02/23 07:01:36;;;;;;;2.58;1.05;;;;;;;;;;4916489;29;20238;-66
2023/02/23 07:04:05;;;;;;;4.22;0.90;;;;;;;;;;4896406;29;20067;-66
2023/02/23 07:06:36;;;;;;;4.85;0.90;;;;;;;;;;4932174;28;20053;-66
2023/02/23 07:09:06;;;;;;;5.55;0.93;;;;;;;;;;4974087;28;20050;-64
2023/02/23 07:11:36;;;;;;;7.28;1.00;;;;;;;;;;4990327;28;20506;-65
2023/02/23 07:14:09;;;;;;;3.85;1.38;;;;;;;;;;5007822;28;20387;-64
2023/02/23 07:16:49;;;;;;;6.25;1.58;;;;;;;;;;4996692;28;20053;-64
2023/02/23 07:19:19;;;;;;;6.90;1.20;;;;;;;;;;4996609;28;20088;-64
2023/02/23 07:21:48;;;;;;;6.95;1.30;;;;;;;;;;4980522;28;20054;-64
2023/02/23 07:24:18;;;;;;;4.60;0.93;;;;;;;;;;5029684;28;20052;-64
2023/02/23 07:26:49;;;;;;;2.55;0.93;;;;;;;;;;5018513;28;20057;-64
2023/02/23 07:29:19;;;;;;;9.57;1.40;;;;;;;;;;5036495;28;20049;-64
2023/02/23 07:31:49;;;;;;;4.30;1.33;;;;;;;;;;5036779;28;20056;-64
2023/02/23 07:34:19;;;;;;;4.90;1.02;;;;;;;;;;5020911;28;20526;-64
2023/02/23 07:36:49;;;;;;;5.10;1.02;;;;;;;;;;5071528;28;20055;-64
2023/02/23 07:39:20;;;;;;;6.22;1.65;;;;;;;;;;5020327;28;20053;-65
2023/02/23 07:41:50;;;;;;;3.60;1.35;;;;;;;;;;5036782;28;20523;-64
2023/02/23 07:44:20;;;;;;;4.82;1.23;;;;;;;;;;5071638;28;20059;-64
2023/02/23 07:46:51;;;;;;;5.07;1.80;;;;;;;;;;5036688;28;20081;-64
2023/02/23 07:49:21;;;;;;;3.92;1.23;;;;;;;;;;5053424;28;20052;-64
2023/02/23 07:51:52;;;;;;;3.63;1.30;;;;;;;;;;5035711;28;20063;-64
2023/02/23 07:54:22;;;;;;;6.60;1.83;;;;;;;;;;5036007;28;20049;-64
2023/02/23 07:56:52;;;;;;;2.63;1.50;;;;;;;;;;5036811;28;20060;-64
2023/02/23 07:59:22;;;;;;;5.10;1.30;;;;;;;;;;5071175;28;20044;-64
2023/02/23 08:01:52;;;;;;;4.68;1.30;;;;;;;;;;5071093;28;20407;-64
2023/02/23 08:04:22;;;;;;;2.83;0.90;;;;;;;;;;5019121;28;20060;-65
2023/02/23 08:06:52;;;;;;;6.22;1.60;;;;;;;;;;5052735;28;20412;-65
2023/02/23 08:09:21;;;;;;;4.72;0.98;;;;;;;;;;5052556;28;20064;-65
2023/02/23 08:11:51;;;;;;;2.13;1.42;;;;;;;;;;5051998;28;20401;-64
2023/02/23 08:14:22;;;;;;;3.40;1.10;;;;;;;;;;5068447;28;20056;-65
2023/02/23 08:16:52;;;;;;;2.30;0.95;;;;;;;;;;5036015;28;20060;-65
2023/02/23 08:19:22;;;;;;;3.15;0.90;;;;;;;;;;5055561;28;20551;-65
2023/02/23 08:21:51;;;;;;;2.83;0.90;;;;;;;;;;5039520;28;20060;-65
2023/02/23 08:24:21;;;;;;;2.50;0.90;;;;;;;;;;5072444;28;20056;-65
2023/02/23 08:26:52;;;;;;;2.90;0.82;;;;;;;;;;5072676;28;20075;-65
2023/02/23 08:29:22;;;;;;;6.35;0.90;;;;;;;;;;5055453;28;20041;-65
2023/02/23 08:31:52;;;;;;;2.08;0.82;;;;;;;;;;5022957;28;20053;-65
2023/02/23 08:34:22;;;;;;;7.65;0.70;;;;;;;;;;5055519;28;20060;-65
2023/02/23 08:36:52;;;;;;;2.00;0.80;;;;;;;;;;5072262;28;20429;-65
2023/02/23 08:39:23;;;;;;;2.63;0.80;;;;;;;;;;5072039;28;20064;-65
2023/02/23 08:41:54;;;;;;;2.78;0.80;;;;;;;;;;5071814;28;20048;-65
2023/02/23 08:44:24;;;;;;;2.92;0.80;;;;;;;;;;5072175;28;20059;-65
2023/02/23 08:46:57;;;;;;;1.45;0.73;;;;;;;;;;5072185;28;20052;-65
2023/02/23 08:49:27;;;;;;;5.28;0.93;;;;;;;;;;5033492;28;20057;-65
2023/02/23 08:51:56;;;;;;;2.13;0.73;;;;;;;;;;5055607;28;20052;-65
2023/02/23 08:54:27;;;;;;;7.45;0.70;;;;;;;;;;5074218;28;20049;-65
2023/02/23 08:56:57;;;;;;;2.95;0.68;;;;;;;;;;5074557;28;20059;-65
2023/02/23 08:59:27;;;;;;;1.45;0.70;;;;;;;;;;5074484;28;20044;-65
2023/02/23 09:01:56;;;;;;;3.65;0.70;;;;;;;;;;5038573;28;20083;-65
2023/02/23 09:04:27;;;;;;;5.75;1.08;;;;;;;;;;5022686;28;20075;-65
2023/02/23 09:06:56;;;;;;;2.50;0.82;;;;;;;;;;5038711;28;20063;-65
2023/02/23 09:09:26;;;;;;;3.20;1.10;;;;;;;;;;5074075;28;20032;-65
2023/02/23 09:11:56;;;;;;;4.03;0.90;;;;;;;;;;5074540;28;20063;-64
2023/02/23 09:14:28;;;;;;;3.40;0.80;;;;;;;;;;5039411;28;20056;-65
2023/02/23 09:16:58;;;;;;;3.95;0.80;;;;;;;;;;5055465;28;20083;-64
2023/02/23 09:19:28;;;;;;;3.72;0.82;;;;;;;;;;5073711;28;20044;-65
2023/02/23 09:21:58;;;;;;;3.63;1.20;;;;;;;;;;5076076;28;20403;-65
2023/02/23 09:24:28;;;;;;;4.07;0.80;;;;;;;;;;4989684;28;20464;-65
2023/02/23 09:26:57;;;;;;;1.95;0.70;;;;;;;;;;5038633;28;20048;-65
2023/02/23 09:29:27;;;;;;;3.08;0.70;;;;;;;;;;5070837;28;20051;-65
2023/02/23 09:31:57;;;;;;;2.70;0.88;;;;;;;;;;5073660;28;20491;-65
2023/02/23 09:34:29;;;;;;;12.40;1.20;;;;;;;;;;5008752;28;20052;-65
2023/02/23 09:37:01;;;;;;;1.48;0.75;;;;;;;;;;5042901;28;20078;-65
2023/02/23 09:39:31;;;;;;;2.97;0.90;;;;;;;;;;5093668;28;20044;-65
2023/02/23 09:42:19;;;;;;;4.18;0.77;;;;;;;;;;5093566;28;20495;-65
2023/02/23 09:45:00;;;;;;;2.85;0.85;;;;;;;;;;5002355;28;20575;-65
2023/02/23 09:48:02;;;;;;;2.72;0.82;;;;;;;;;;5050780;28;20068;-65
2023/02/23 09:50:34;;;;;;;6.63;1.20;;;;;;;;;;5017839;28;20476;-65
2023/02/23 09:53:17;;;;;;;;;;;;;;;;;;5051480;28;20052;-65
2023/02/23 09:55:49;;;;;;;3.22;1.17;;;;;;;;;;5030503;28;19921;-66
2023/02/23 09:58:39;;;;;;;6.30;1.02;;;;;;;;;;5030528;28;20061;-65
2023/02/23 10:01:37;;;;;;;8.35;0.85;;;;;;;;;;4997940;28;20057;-65
2023/02/23 10:04:07;;;;;;;6.00;1.10;;;;;;;;;;5030427;28;20054;-65
2023/02/23 10:06:41;;;;;;;1.75;1.20;;;;;;;;;;5030629;28;20049;-65
2023/02/23 10:09:31;;;;;;;3.85;1.02;;;;;;;;;;5030708;28;20050;-65
2023/02/23 10:12:12;;;;;;;1.35;0.73;;;;;;;;;;4964858;28;20137;-65
2023/02/23 10:14:52;;;;;;;5.32;0.88;;;;;;;;;;5030272;28;20061;-65
2023/02/23 10:17:30;;;;;;;3.05;0.70;;;;;;;;;;4997528;28;20088;-64
2023/02/23 10:20:26;;;;;;;3.03;0.93;;;;;;;;;;5030398;28;20064;-65
2023/02/23 10:23:02;;;;;;;3.50;0.80;;;;;;;;;;4985132;28;20502;-65
2023/02/23 10:25:37;;;;;;;6.35;0.80;;;;;;;;;;4971112;28;20050;-66
2023/02/23 10:28:14;;;;;;;5.57;1.00;;;;;;;;;;4971467;28;20058;-65
2023/02/23 10:30:44;;;;;;;3.92;1.13;;;;;;;;;;4907615;28;20150;-65
2023/02/23 10:33:30;;;;;;;1.73;0.80;;;;;;;;;;4954482;28;20050;-65
2023/02/23 10:36:22;;;;;;;7.10;1.75;;;;;;;;;;5010306;28;20406;-66
2023/02/23 10:38:52;;;;;;;3.25;0.90;;;;;;;;;;4980611;28;20046;-65
2023/02/23 10:41:22;;;;;;;2.72;0.57;;;;;;;;;;4973508;28;20061;-65
2023/02/23 10:43:53;;;;;;;2.88;0.50;;;;;;;;;;4974776;28;20630;-66
2023/02/23 10:46:36;;;;;;;1.60;0.80;;;;;;;;;;4990658;28;20062;-65
2023/02/23 10:49:14;;;;;;;2.63;0.75;;;;;;;;;;4990603;28;20050;-65
2023/02/23 10:51:44;;;;;;;5.03;0.82;;;;;;;;;;4974543;28;20047;-65
2023/02/23 10:54:52;;;;;;;2.83;0.70;;;;;;;;;;4990359;28;20078;-66
2023/02/23 10:57:33;;;;;;;4.82;0.90;;;;;;;;;;5005401;28;20062;-66
2023/02/23 11:00:26;;;;;;;3.35;0.82;;;;;;;;;;5012788;28;20068;-66
2023/02/23 11:02:58;;;;;;;2.10;0.70;;;;;;;;;;5014454;28;20058;-66
2023/02/23 11:05:33;;;;;;;4.43;0.80;;;;;;;;;;4964613;28;20080;-66
2023/02/23 11:08:19;;;;;;;5.45;0.93;;;;;;;;;;5029701;28;20520;-65
2023/02/23 11:10:59;;;;;;;4.13;1.40;;;;;;;;;;4996358;28;20394;-66
2023/02/23 11:13:40;;;;;;;2.30;0.80;;;;;;;;;;4996742;28;20056;-65
2023/02/23 11:16:22;;;;;;;4.28;0.70;;;;;;;;;;5012359;28;20053;-66
2023/02/23 11:19:03;;;;;;;2.20;0.70;;;;;;;;;;4980335;28;20061;-66
2023/02/23 11:21:37;;;;;;;4.85;0.90;;;;;;;;;;5029428;28;20069;-66
2023/02/23 11:24:19;;;;;;;4.10;1.13;;;;;;;;;;5013027;28;20056;-65
2023/02/23 11:26:53;;;;;;;4.70;1.05;;;;;;;;;;5029119;28;20053;-65
2023/02/23 11:29:34;;;;;;;3.88;0.90;;;;;;;;;;5029160;28;20041;-65
2023/02/23 11:32:21;;;;;;;2.28;0.90;;;;;;;;;;5026409;28;20053;-66
2023/02/23 11:35:14;;;;;;;5.68;0.90;;;;;;;;;;5071258;28;20048;-65
2023/02/23 11:37:44;;;;;;;1.77;0.85;;;;;;;;;;4953668;28;20069;-65
2023/02/23 11:40:28;;;;;;;2.83;0.70;;;;;;;;;;4970107;28;20061;-65
2023/02/23 11:43:14;;;;;;;1.63;1.00;;;;;;;;;;4953991;28;20403;-65
2023/02/23 11:45:53;;;;;;;4.45;0.88;;;;;;;;;;4938014;28;20073;-65
2023/02/23 11:48:30;;;;;;;3.20;0.63;;;;;;;;;;4953918;28;20062;-66
2023/02/23 11:51:01;;;;;;;4.82;0.60;;;;;;;;;;4953663;28;20053;-65
2023/02/23 11:53:39;;;;;;;1.60;0.70;;;;;;;;;;4970188;28;20047;-66
2023/02/23 11:56:11;;;;;;;3.42;0.60;;;;;;;;;;4938180;28;20062;-66
2023/02/23 11:58:52;;;;;;;2.17;0.70;;;;;;;;;;4954910;28;20102;-65
2023/02/23 12:01:44;;;;;;;0.85;0.60;;;;;;;;;;4969935;28;20065;-65
2023/02/23 12:04:31;;;;;;;1.60;0.70;;;;;;;;;;4938916;28;20065;-66
2023/02/23 12:07:40;;;;;;;3.80;0.63;;;;;;;;;;4970063;28;20066;-65
2023/02/23 12:10:33;;;;;;;1.83;0.60;;;;;;;;;;4937914;28;20055;-66
2023/02/23 12:13:26;;;;;;;3.00;0.65;;;;;;;;;;4884271;29;20063;-65
2023/02/23 12:16:05;;;;;;;3.45;1.00;;;;;;;;;;4968457;28;20066;-66
2023/02/23 12:18:52;;;;;;;;;;;;;;;;;;4957014;28;20073;-66
2023/02/23 12:21:56;;;;;;;1.17;0.75;;;;;;;;;;4989102;28;19928;-65
2023/02/23 12:24:42;;;;;;;1.05;0.63;;;;;;;;;;4931674;29;20083;-66
2023/02/23 12:27:21;;;;;;;2.03;0.60;;;;;;;;;;4931412;29;20060;-66
2023/02/23 12:30:38;;;;;;;1.95;0.73;;;;;;;;;;4915386;29;20048;-65
2023/02/23 12:33:20;;;;;;;1.67;0.68;;;;;;;;;;4912469;29;20853;-65
2023/02/23 12:36:32;;;;;;;2.75;0.90;;;;;;;;;;4912290;29;20052;-66
2023/02/23 12:39:35;;;;;;;2.50;0.85;;;;;;;;;;4874880;29;20410;-69
2023/02/23 12:42:41;;;;;;;3.50;0.68;;;;;;;;;;4874647;29;20056;-69
2023/02/23 12:46:03;;;;;;;1.08;0.70;;;;;;;;;;4837820;29;20068;-66
2023/02/23 12:49:12;;;;;;;4.50;0.80;;;;;;;;;;4837601;29;20071;-67
2023/02/23 12:52:10;;;;;;;1.77;0.60;;;;;;;;;;4837590;29;20053;-65
2023/02/23 12:54:45;;;;;;;1.80;0.52;;;;;;;;;;4837824;29;20514;-66
2023/02/23 12:57:49;;;;;;;1.15;0.50;;;;;;;;;;4822438;29;20065;-65
2023/02/23 13:00:31;;;;;;;2.78;0.73;;;;;;;;;;4841739;29;20067;-66
2023/02/23 13:03:16;;;;;;;2.00;0.70;;;;;;;;;;4839518;29;20057;-65
2023/02/23 13:06:10;;;;;;;1.77;0.60;;;;;;;;;;4840896;29;20057;-65
2023/02/23 13:08:57;;;;;;;1.10;0.95;;;;;;;;;;4841004;29;20062;-65
2023/02/23 13:11:44;;;;;;;2.17;0.80;;;;;;;;;;4840911;29;20058;-64
2023/02/23 13:14:28;;;;;;;7.40;1.20;;;;;;;;;;4887981;29;20071;-65
2023/02/23 13:17:19;;;;;;;1.42;0.90;;;;;;;;;;4896180;29;20048;-64
2023/02/23 13:20:19;;;;;;;3.22;1.15;;;;;;;;;;4896070;29;20052;-65
2023/02/23 13:23:03;;;;;;;4.90;1.23;;;;;;;;;;4831665;29;20528;-65
2023/02/23 13:25:46;;;;;;;2.67;1.33;;;;;;;;;;4877658;29;20065;-65
2023/02/23 13:28:38;;;;;;;2.15;1.00;;;;;;;;;;4877603;29;20057;-65
2023/02/23 13:31:24;;;;;;;2.65;1.15;;;;;;;;;;4858995;29;20065;-65
2023/02/23 13:33:57;;;;;;;4.10;1.58;;;;;;;;;;4858085;29;20546;-65
2023/02/23 13:36:31;;;;;;;2.00;0.98;;;;;;;;;;4879942;29;20064;-65
2023/02/23 13:39:37;;;;;;;1.65;1.08;;;;;;;;;;4914790;29;20056;-65
2023/02/23 13:42:36;;;;;;;4.43;0.82;;;;;;;;;;4899285;29;20060;-65
2023/02/23 13:45:25;;;;;;;3.38;0.90;;;;;;;;;;4915126;29;20056;-65
2023/02/23 13:47:57;;;;;;;1.75;1.00;;;;;;;;;;4913228;29;20056;-65
2023/02/23 13:50:36;;;;;;;;;;;;;;;;;;4920645;29;20056;-64
2023/02/23 13:53:26;;;;;;;3.40;1.33;;;;;;;;;;4918201;29;19922;-65
2023/02/23 13:55:59;;;;;;;1.48;0.90;;;;;;;;;;4918148;29;20057;-65
2023/02/23 13:58:32;;;;;;;3.45;0.73;;;;;;;;;;4918772;29;20062;-66
2023/02/23 14:01:20;;;;;;;1.60;0.75;;;;;;;;;;5002480;28;20460;-66
2023/02/23 14:03:56;;;;;;;2.75;0.73;;;;;;;;;;4962701;28;20464;-66
2023/02/23 14:06:29;;;;;;;1.55;1.00;;;;;;;;;;5010864;28;20540;-66
2023/02/23 14:09:12;;;;;;;1.67;0.60;;;;;;;;;;5048449;28;20060;-66
2023/02/23 14:11:55;;;;;;;2.35;0.70;;;;;;;;;;5073086;28;20059;-65
2023/02/23 14:14:31;;;;;;;0.75;0.63;;;;;;;;;;5072626;28;20040;-67
2023/02/23 14:17:40;;;;;;;1.02;0.60;;;;;;;;;;5084615;28;20036;-66
2023/02/23 14:20:10;;;;;;;1.77;0.60;;;;;;;;;;5092861;28;20036;-66
2023/02/23 14:23:15;;;;;;;1.70;0.60;;;;;;;;;;5038877;28;20056;-67
2023/02/23 14:25:50;;;;;;;2.55;0.50;;;;;;;;;;5058087;28;20052;-67
2023/02/23 14:28:26;;;;;;;4.15;0.60;;;;;;;;;;5093037;28;20040;-64
2023/02/23 14:31:10;;;;;;;0.63;0.40;;;;;;;;;;5091923;28;20052;-67
2023/02/23 14:33:47;;;;;;;2.53;0.80;;;;;;;;;;5092979;28;20040;-65
2023/02/23 14:36:23;;;;;;;1.98;0.77;;;;;;;;;;5092327;28;20044;-65
2023/02/23 14:38:56;;;;;;;2.72;0.82;;;;;;;;;;5090997;28;20066;-66
2023/02/23 14:41:43;;;;;;;1.65;0.65;;;;;;;;;;5023107;28;20052;-66
2023/02/23 14:44:16;;;;;;;1.63;0.68;;;;;;;;;;5055648;28;20052;-67
2023/02/23 14:47:14;;;;;;;1.58;0.93;;;;;;;;;;5056090;28;20055;-65
2023/02/23 14:49:51;;;;;;;1.60;0.50;;;;;;;;;;5090718;28;20063;-66
2023/02/23 14:52:25;;;;;;;0.98;0.73;;;;;;;;;;5056375;28;20427;-65
2023/02/23 14:55:10;;;;;;;5.18;0.65;;;;;;;;;;5091823;28;20052;-69
2023/02/23 14:57:43;;;;;;;1.20;0.80;;;;;;;;;;5055766;28;20408;-66
2023/02/23 15:00:25;;;;;;;1.65;0.63;;;;;;;;;;5039879;28;20059;-66
2023/02/23 15:03:11;;;;;;;1.00;0.45;;;;;;;;;;5091919;28;20044;-65
2023/02/23 15:05:43;;;;;;;0.85;0.55;;;;;;;;;;5040071;28;20052;-65
2023/02/23 15:08:21;;;;;;;1.13;1.02;;;;;;;;;;5091964;28;20036;-66
2023/02/23 15:11:11;;;;;;;2.25;0.70;;;;;;;;;;5056566;28;20055;-67
2023/02/23 15:13:49;;;;;;;1.65;0.70;;;;;;;;;;5059826;28;20063;-69
2023/02/23 15:16:33;;;;;;;0.85;0.50;;;;;;;;;;5039642;28;20048;-65
2023/02/23 15:19:04;;;;;;;1.80;0.50;;;;;;;;;;5056382;28;20062;-66
2023/02/23 15:21:38;;;;;;;1.52;0.60;;;;;;;;;;5091762;28;20047;-66
2023/02/23 15:24:15;;;;;;;0.82;0.40;;;;;;;;;;5092204;28;20522;-66
2023/02/23 15:26:46;;;;;;;2.40;0.50;;;;;;;;;;5056041;28;20052;-66
2023/02/23 15:29:20;;;;;;;1.38;0.80;;;;;;;;;;5092134;28;20375;-65
2023/02/23 15:31:53;;;;;;;2.03;0.90;;;;;;;;;;5091506;28;20395;-68
2023/02/23 15:34:26;;;;;;;1.15;0.40;;;;;;;;;;5056290;28;20066;-66
2023/02/23 15:37:06;;;;;;;0.90;0.60;;;;;;;;;;5048832;28;20500;-67
2023/02/23 15:39:55;;;;;;;1.67;0.50;;;;;;;;;;5048846;28;20057;-66
2023/02/23 15:42:44;;;;;;;1.02;0.50;;;;;;;;;;5033398;28;20057;-67
2023/02/23 15:45:48;;;;;;;2.47;0.47;;;;;;;;;;5046687;28;20540;-66
2023/02/23 15:48:25;;;;;;;1.38;0.50;;;;;;;;;;4954021;28;20071;-66
2023/02/23 15:50:57;;;;;;;2.45;0.50;;;;;;;;;;4938020;28;20055;-68
2023/02/23 15:53:48;;;;;;;1.25;0.60;;;;;;;;;;4950871;28;20055;-67
2023/02/23 15:56:27;;;;;;;0.52;0.52;;;;;;;;;;4918932;29;20173;-67
2023/02/23 15:59:06;;;;;;;1.10;0.40;;;;;;;;;;4950750;29;20051;-66
2023/02/23 16:01:45;;;;;;;2.85;0.40;;;;;;;;;;4918969;29;20058;-66
2023/02/23 16:04:19;;;;;;;1.10;0.40;;;;;;;;;;4919220;29;20059;-66
2023/02/23 16:06:52;;;;;;;1.33;0.65;;;;;;;;;;4950612;29;20055;-66
2023/02/23 16:09:24;;;;;;;1.23;0.40;;;;;;;;;;4950723;29;20063;-70
2023/02/23 16:12:11;;;;;;;1.27;0.30;;;;;;;;;;4950381;29;20396;-72
2023/02/23 16:14:57;;;;;;;0.77;0.40;;;;;;;;;;4961345;28;20156;-66
2023/02/23 16:17:46;;;;;;;0.50;0.32;;;;;;;;;;4969909;28;20502;-65
2023/02/23 16:20:20;;;;;;;0.60;0.45;;;;;;;;;;4970091;28;20466;-65
2023/02/23 16:22:53;;;;;;;0.68;0.50;;;;;;;;;;4969643;28;20055;-67
2023/02/23 16:25:27;;;;;;;1.02;0.60;;;;;;;;;;5000723;28;20093;-65
2023/02/23 16:28:08;;;;;;;0.55;0.43;;;;;;;;;;5028524;28;20540;-65
2023/02/23 16:30:44;;;;;;;1.27;0.30;;;;;;;;;;5006223;28;20087;-67
2023/02/23 16:33:43;;;;;;;0.90;0.40;;;;;;;;;;5040285;28;20071;-66
2023/02/23 16:36:32;;;;;;;0.63;0.50;;;;;;;;;;4972913;28;20050;-68
2023/02/23 16:39:09;;;;;;;1.27;0.90;;;;;;;;;;4990939;28;20058;-65
2023/02/23 16:41:39;;;;;;;0.80;0.40;;;;;;;;;;4993321;28;20062;-68
2023/02/23 16:44:21;;;;;;;0.60;0.30;;;;;;;;;;4977039;28;20062;-66
2023/02/23 16:47:24;;;;;;;0.32;0.30;;;;;;;;;;4948805;28;20055;-66
2023/02/23 16:49:54;;;;;;;1.15;0.45;;;;;;;;;;4992908;28;20062;-66
2023/02/23 16:52:24;;;;;;;0.45;0.35;;;;;;;;;;4992906;28;20065;-67
2023/02/23 16:54:54;;;;;;;0.80;0.68;;;;;;;;;;4976701;28;20413;-70
2023/02/23 16:57:31;;;;;;;1.10;0.40;;;;;;;;;;4976602;28;20050;-67
2023/02/23 17:00:13;;;;;;;1.10;0.40;;;;;;;;;;4992631;28;20057;-68